sensor_id;sensor_type;location;lat;lon;timestamp;P1;durP1;ratioP1;P2;durP2;ratioP2
18933;SDS011;9599;53.706;10.384;2023-01-28T00:00:51;7.30;;;4.60;;
18933;SDS011;9599;53.706;10.384;2023-01-28T00:03:19;8.20;;;5.10;;
18933;SDS011;9599;53.706;10.384;2023-01-28T00:05:47;7.13;;;4.70;;
18933;SDS011;9599;53.706;10.384;2023-01-28T00:08:16;5.73;;;4.90;;
18933;SDS011;9599;53.706;10.384;2023-01-28T00:10:44;6.73;;;4.87;;
18933;SDS011;9599;53.706;10.384;2023-01-28T00:13:12;8.40;;;5.30;;
18933;SDS011;9599;53.706;10.384;2023-01-28T00:15:41;12.63;;;4.83;;
18933;SDS011;9599;53.706;10.384;2023-01-28T00:18:09;6.80;;;5.13;;
18933;SDS011;9599;53.706;10.384;2023-01-28T00:20:37;8.83;;;5.47;;
18933;SDS011;9599;53.706;10.384;2023-01-28T00:23:05;7.97;;;5.03;;
18933;SDS011;9599;53.706;10.384;2023-01-28T00:25:34;9.40;;;5.13;;
18933;SDS011;9599;53.706;10.384;2023-01-28T00:28:02;6.53;;;4.77;;
18933;SDS011;9599;53.706;10.384;2023-01-28T00:30:30;6.83;;;4.40;;
18933;SDS011;9599;53.706;10.384;2023-01-28T00:32:58;9.50;;;5.13;;
18933;SDS011;9599;53.706;10.384;2023-01-28T00:35:26;8.83;;;5.30;;
18933;SDS011;9599;53.706;10.384;2023-01-28T00:37:55;9.90;;;6.40;;
18933;SDS011;9599;53.706;10.384;2023-01-28T00:40:23;10.63;;;6.60;;
18933;SDS011;9599;53.706;10.384;2023-01-28T00:42:52;17.77;;;9.20;;
18933;SDS011;9599;53.706;10.384;2023-01-28T00:45:20;6.57;;;4.93;;
18933;SDS011;9599;53.706;10.384;2023-01-28T00:47:48;5.60;;;4.77;;
18933;SDS011;9599;53.706;10.384;2023-01-28T00:50:18;8.67;;;5.67;;
18933;SDS011;9599;53.706;10.384;2023-01-28T00:52:46;17.13;;;8.20;;
18933;SDS011;9599;53.706;10.384;2023-01-28T00:55:16;12.40;;;6.87;;
18933;SDS011;9599;53.706;10.384;2023-01-28T00:57:45;14.27;;;7.77;;
18933;SDS011;9599;53.706;10.384;2023-01-28T01:00:15;16.80;;;8.83;;
18933;SDS011;9599;53.706;10.384;2023-01-28T01:02:47;20.43;;;10.50;;
18933;SDS011;9599;53.706;10.384;2023-01-28T01:05:15;16.20;;;9.60;;
18933;SDS011;9599;53.706;10.384;2023-01-28T01:07:43;18.60;;;9.27;;
18933;SDS011;9599;53.706;10.384;2023-01-28T01:10:12;9.50;;;6.00;;
18933;SDS011;9599;53.706;10.384;2023-01-28T01:12:41;16.40;;;8.30;;
18933;SDS011;9599;53.706;10.384;2023-01-28T01:15:09;14.97;;;8.63;;
18933;SDS011;9599;53.706;10.384;2023-01-28T01:17:41;12.47;;;7.87;;
18933;SDS011;9599;53.706;10.384;2023-01-28T01:20:12;11.83;;;7.80;;
18933;SDS011;9599;53.706;10.384;2023-01-28T01:22:41;11.97;;;7.83;;
18933;SDS011;9599;53.706;10.384;2023-01-28T01:25:09;11.83;;;7.77;;
18933;SDS011;9599;53.706;10.384;2023-01-28T01:27:39;12.23;;;6.90;;
18933;SDS011;9599;53.706;10.384;2023-01-28T01:30:08;10.67;;;6.77;;
18933;SDS011;9599;53.706;10.384;2023-01-28T01:32:36;9.73;;;5.67;;
18933;SDS011;9599;53.706;10.384;2023-01-28T01:35:07;10.90;;;6.00;;
18933;SDS011;9599;53.706;10.384;2023-01-28T01:37:38;7.73;;;5.80;;
18933;SDS011;9599;53.706;10.384;2023-01-28T01:40:06;11.57;;;5.97;;
18933;SDS011;9599;53.706;10.384;2023-01-28T01:42:35;12.73;;;7.30;;
18933;SDS011;9599;53.706;10.384;2023-01-28T01:45:04;10.93;;;7.30;;
18933;SDS011;9599;53.706;10.384;2023-01-28T01:47:38;9.40;;;5.87;;
18933;SDS011;9599;53.706;10.384;2023-01-28T01:50:15;7.77;;;5.03;;
18933;SDS011;9599;53.706;10.384;2023-01-28T01:52:51;8.23;;;5.13;;
18933;SDS011;9599;53.706;10.384;2023-01-28T01:55:22;8.33;;;5.40;;
18933;SDS011;9599;53.706;10.384;2023-01-28T01:57:53;7.67;;;5.50;;
18933;SDS011;9599;53.706;10.384;2023-01-28T02:00:24;10.33;;;6.27;;
18933;SDS011;9599;53.706;10.384;2023-01-28T02:02:52;11.43;;;7.00;;
18933;SDS011;9599;53.706;10.384;2023-01-28T02:05:23;11.07;;;7.23;;
18933;SDS011;9599;53.706;10.384;2023-01-28T02:07:51;12.10;;;6.67;;
18933;SDS011;9599;53.706;10.384;2023-01-28T02:10:43;9.60;;;5.70;;
18933;SDS011;9599;53.706;10.384;2023-01-28T02:13:13;9.27;;;5.80;;
18933;SDS011;9599;53.706;10.384;2023-01-28T02:15:42;8.30;;;6.00;;
18933;SDS011;9599;53.706;10.384;2023-01-28T02:18:12;7.93;;;5.50;;
18933;SDS011;9599;53.706;10.384;2023-01-28T02:20:46;9.47;;;5.97;;
18933;SDS011;9599;53.706;10.384;2023-01-28T02:23:33;9.30;;;5.67;;
18933;SDS011;9599;53.706;10.384;2023-01-28T02:26:20;8.30;;;5.70;;
18933;SDS011;9599;53.706;10.384;2023-01-28T02:29:00;8.97;;;6.10;;
18933;SDS011;9599;53.706;10.384;2023-01-28T02:31:33;7.60;;;5.70;;
18933;SDS011;9599;53.706;10.384;2023-01-28T02:34:08;7.43;;;5.60;;
18933;SDS011;9599;53.706;10.384;2023-01-28T02:36:41;7.97;;;5.60;;
18933;SDS011;9599;53.706;10.384;2023-01-28T02:39:15;9.77;;;5.60;;
18933;SDS011;9599;53.706;10.384;2023-01-28T02:41:47;8.10;;;5.27;;
18933;SDS011;9599;53.706;10.384;2023-01-28T02:44:21;7.30;;;5.50;;
18933;SDS011;9599;53.706;10.384;2023-01-28T02:46:50;8.33;;;5.27;;
18933;SDS011;9599;53.706;10.384;2023-01-28T02:49:38;10.57;;;5.63;;
18933;SDS011;9599;53.706;10.384;2023-01-28T02:52:13;11.80;;;6.40;;
18933;SDS011;9599;53.706;10.384;2023-01-28T02:55:12;9.97;;;6.60;;
18933;SDS011;9599;53.706;10.384;2023-01-28T02:57:47;9.33;;;5.73;;
18933;SDS011;9599;53.706;10.384;2023-01-28T03:00:28;8.03;;;5.67;;
18933;SDS011;9599;53.706;10.384;2023-01-28T03:03:05;9.43;;;5.67;;
18933;SDS011;9599;53.706;10.384;2023-01-28T03:05:43;7.50;;;5.33;;
18933;SDS011;9599;53.706;10.384;2023-01-28T03:08:30;10.10;;;5.60;;
18933;SDS011;9599;53.706;10.384;2023-01-28T03:11:19;8.87;;;6.00;;
18933;SDS011;9599;53.706;10.384;2023-01-28T03:14:07;9.40;;;6.00;;
18933;SDS011;9599;53.706;10.384;2023-01-28T03:16:55;8.10;;;5.63;;
18933;SDS011;9599;53.706;10.384;2023-01-28T03:19:43;8.87;;;5.50;;
18933;SDS011;9599;53.706;10.384;2023-01-28T03:22:30;10.07;;;6.60;;
18933;SDS011;9599;53.706;10.384;2023-01-28T03:25:19;10.97;;;5.93;;
18933;SDS011;9599;53.706;10.384;2023-01-28T03:28:07;8.73;;;6.03;;
18933;SDS011;9599;53.706;10.384;2023-01-28T03:31:00;9.67;;;5.93;;
18933;SDS011;9599;53.706;10.384;2023-01-28T03:33:54;9.40;;;6.10;;
18933;SDS011;9599;53.706;10.384;2023-01-28T03:36:42;8.60;;;5.40;;
18933;SDS011;9599;53.706;10.384;2023-01-28T03:39:52;7.70;;;5.63;;
18933;SDS011;9599;53.706;10.384;2023-01-28T03:42:23;10.53;;;6.50;;
18933;SDS011;9599;53.706;10.384;2023-01-28T03:44:57;8.07;;;6.20;;
18933;SDS011;9599;53.706;10.384;2023-01-28T03:47:28;8.93;;;6.40;;
18933;SDS011;9599;53.706;10.384;2023-01-28T03:50:01;10.00;;;6.20;;
18933;SDS011;9599;53.706;10.384;2023-01-28T03:52:38;9.20;;;6.13;;
18933;SDS011;9599;53.706;10.384;2023-01-28T03:55:28;9.17;;;6.43;;
18933;SDS011;9599;53.706;10.384;2023-01-28T03:57:56;9.57;;;6.03;;
18933;SDS011;9599;53.706;10.384;2023-01-28T04:00:24;9.93;;;6.47;;
18933;SDS011;9599;53.706;10.384;2023-01-28T04:02:54;8.10;;;6.57;;
18933;SDS011;9599;53.706;10.384;2023-01-28T04:05:24;7.93;;;6.03;;
18933;SDS011;9599;53.706;10.384;2023-01-28T04:07:53;9.10;;;6.80;;
18933;SDS011;9599;53.706;10.384;2023-01-28T04:10:39;11.87;;;7.03;;
18933;SDS011;9599;53.706;10.384;2023-01-28T04:13:17;12.20;;;7.13;;
18933;SDS011;9599;53.706;10.384;2023-01-28T04:15:45;11.10;;;8.73;;
18933;SDS011;9599;53.706;10.384;2023-01-28T04:18:14;13.00;;;7.60;;
18933;SDS011;9599;53.706;10.384;2023-01-28T04:20:45;10.27;;;7.40;;
18933;SDS011;9599;53.706;10.384;2023-01-28T04:23:16;10.73;;;7.10;;
18933;SDS011;9599;53.706;10.384;2023-01-28T04:25:44;11.60;;;7.10;;
18933;SDS011;9599;53.706;10.384;2023-01-28T04:28:16;12.43;;;7.30;;
18933;SDS011;9599;53.706;10.384;2023-01-28T04:30:44;8.83;;;6.60;;
18933;SDS011;9599;53.706;10.384;2023-01-28T04:33:32;11.27;;;6.20;;
18933;SDS011;9599;53.706;10.384;2023-01-28T04:36:10;7.87;;;6.07;;
18933;SDS011;9599;53.706;10.384;2023-01-28T04:38:40;7.80;;;5.93;;
18933;SDS011;9599;53.706;10.384;2023-01-28T04:41:46;9.87;;;5.70;;
18933;SDS011;9599;53.706;10.384;2023-01-28T04:44:27;8.33;;;5.53;;
18933;SDS011;9599;53.706;10.384;2023-01-28T04:47:13;7.80;;;5.97;;
18933;SDS011;9599;53.706;10.384;2023-01-28T04:50:04;9.07;;;6.33;;
18933;SDS011;9599;53.706;10.384;2023-01-28T04:53:00;9.40;;;6.10;;
18933;SDS011;9599;53.706;10.384;2023-01-28T04:55:38;8.20;;;6.00;;
18933;SDS011;9599;53.706;10.384;2023-01-28T04:58:06;12.97;;;7.10;;
18933;SDS011;9599;53.706;10.384;2023-01-28T05:00:35;11.73;;;7.13;;
18933;SDS011;9599;53.706;10.384;2023-01-28T05:03:03;8.80;;;6.77;;
18933;SDS011;9599;53.706;10.384;2023-01-28T05:05:31;10.50;;;7.17;;
18933;SDS011;9599;53.706;10.384;2023-01-28T05:08:16;9.57;;;7.40;;
18933;SDS011;9599;53.706;10.384;2023-01-28T05:10:45;11.77;;;7.40;;
18933;SDS011;9599;53.706;10.384;2023-01-28T05:13:13;13.23;;;7.43;;
18933;SDS011;9599;53.706;10.384;2023-01-28T05:15:42;10.53;;;6.60;;
18933;SDS011;9599;53.706;10.384;2023-01-28T05:18:17;8.83;;;6.70;;
18933;SDS011;9599;53.706;10.384;2023-01-28T05:20:57;9.87;;;6.60;;
18933;SDS011;9599;53.706;10.384;2023-01-28T05:23:26;10.73;;;6.83;;
18933;SDS011;9599;53.706;10.384;2023-01-28T05:25:55;10.67;;;6.50;;
18933;SDS011;9599;53.706;10.384;2023-01-28T05:28:23;11.90;;;6.80;;
18933;SDS011;9599;53.706;10.384;2023-01-28T05:30:51;11.73;;;6.50;;
18933;SDS011;9599;53.706;10.384;2023-01-28T05:33:19;9.50;;;6.63;;
18933;SDS011;9599;53.706;10.384;2023-01-28T05:35:48;9.23;;;7.00;;
18933;SDS011;9599;53.706;10.384;2023-01-28T05:38:18;13.20;;;6.77;;
18933;SDS011;9599;53.706;10.384;2023-01-28T05:40:47;9.23;;;6.70;;
18933;SDS011;9599;53.706;10.384;2023-01-28T05:43:15;11.30;;;7.17;;
18933;SDS011;9599;53.706;10.384;2023-01-28T05:45:50;8.03;;;6.80;;
18933;SDS011;9599;53.706;10.384;2023-01-28T05:48:26;9.67;;;6.47;;
18933;SDS011;9599;53.706;10.384;2023-01-28T05:51:04;10.10;;;6.50;;
18933;SDS011;9599;53.706;10.384;2023-01-28T05:53:37;11.07;;;6.80;;
18933;SDS011;9599;53.706;10.384;2023-01-28T05:56:07;9.30;;;6.63;;
18933;SDS011;9599;53.706;10.384;2023-01-28T05:58:36;10.73;;;6.43;;
18933;SDS011;9599;53.706;10.384;2023-01-28T06:01:04;9.53;;;6.33;;
18933;SDS011;9599;53.706;10.384;2023-01-28T06:03:40;10.53;;;6.40;;
18933;SDS011;9599;53.706;10.384;2023-01-28T06:06:08;9.20;;;6.33;;
18933;SDS011;9599;53.706;10.384;2023-01-28T06:08:36;8.00;;;6.27;;
18933;SDS011;9599;53.706;10.384;2023-01-28T06:11:04;9.00;;;6.43;;
18933;SDS011;9599;53.706;10.384;2023-01-28T06:13:34;8.33;;;6.40;;
18933;SDS011;9599;53.706;10.384;2023-01-28T06:16:21;9.63;;;6.40;;
18933;SDS011;9599;53.706;10.384;2023-01-28T06:19:04;10.47;;;6.23;;
18933;SDS011;9599;53.706;10.384;2023-01-28T06:21:32;10.13;;;6.10;;
18933;SDS011;9599;53.706;10.384;2023-01-28T06:24:00;7.77;;;6.13;;
18933;SDS011;9599;53.706;10.384;2023-01-28T06:26:29;10.00;;;6.50;;
18933;SDS011;9599;53.706;10.384;2023-01-28T06:28:58;10.33;;;6.40;;
18933;SDS011;9599;53.706;10.384;2023-01-28T06:31:26;9.17;;;6.73;;
18933;SDS011;9599;53.706;10.384;2023-01-28T06:33:54;9.17;;;6.13;;
18933;SDS011;9599;53.706;10.384;2023-01-28T06:36:22;9.73;;;6.60;;
18933;SDS011;9599;53.706;10.384;2023-01-28T06:38:50;10.43;;;6.53;;
18933;SDS011;9599;53.706;10.384;2023-01-28T06:41:17;9.47;;;6.50;;
18933;SDS011;9599;53.706;10.384;2023-01-28T06:43:45;7.73;;;6.43;;
18933;SDS011;9599;53.706;10.384;2023-01-28T06:46:15;11.10;;;6.30;;
18933;SDS011;9599;53.706;10.384;2023-01-28T06:48:43;8.90;;;5.80;;
18933;SDS011;9599;53.706;10.384;2023-01-28T06:51:11;7.77;;;6.00;;
18933;SDS011;9599;53.706;10.384;2023-01-28T06:53:39;12.13;;;6.30;;
18933;SDS011;9599;53.706;10.384;2023-01-28T06:56:07;8.93;;;6.10;;
18933;SDS011;9599;53.706;10.384;2023-01-28T06:58:35;8.80;;;6.20;;
18933;SDS011;9599;53.706;10.384;2023-01-28T07:01:03;9.50;;;6.03;;
18933;SDS011;9599;53.706;10.384;2023-01-28T07:03:32;11.23;;;6.60;;
18933;SDS011;9599;53.706;10.384;2023-01-28T07:06:00;9.30;;;6.43;;
18933;SDS011;9599;53.706;10.384;2023-01-28T07:08:28;8.37;;;6.43;;
18933;SDS011;9599;53.706;10.384;2023-01-28T07:10:56;10.13;;;7.03;;
18933;SDS011;9599;53.706;10.384;2023-01-28T07:13:24;9.87;;;6.80;;
18933;SDS011;9599;53.706;10.384;2023-01-28T07:15:52;11.20;;;7.13;;
18933;SDS011;9599;53.706;10.384;2023-01-28T07:18:20;9.60;;;7.03;;
18933;SDS011;9599;53.706;10.384;2023-01-28T07:20:49;11.60;;;6.63;;
18933;SDS011;9599;53.706;10.384;2023-01-28T07:23:17;11.80;;;6.70;;
18933;SDS011;9599;53.706;10.384;2023-01-28T07:25:45;8.50;;;6.47;;
18933;SDS011;9599;53.706;10.384;2023-01-28T07:28:13;10.77;;;6.50;;
18933;SDS011;9599;53.706;10.384;2023-01-28T07:30:47;10.17;;;7.00;;
18933;SDS011;9599;53.706;10.384;2023-01-28T07:33:19;12.17;;;6.70;;
18933;SDS011;9599;53.706;10.384;2023-01-28T07:35:47;10.87;;;6.97;;
18933;SDS011;9599;53.706;10.384;2023-01-28T07:38:16;10.50;;;7.10;;
18933;SDS011;9599;53.706;10.384;2023-01-28T07:40:45;12.20;;;7.00;;
18933;SDS011;9599;53.706;10.384;2023-01-28T07:43:13;12.30;;;7.40;;
18933;SDS011;9599;53.706;10.384;2023-01-28T07:45:41;9.03;;;6.77;;
18933;SDS011;9599;53.706;10.384;2023-01-28T07:48:10;8.37;;;6.50;;
18933;SDS011;9599;53.706;10.384;2023-01-28T07:50:39;10.70;;;6.60;;
18933;SDS011;9599;53.706;10.384;2023-01-28T07:53:07;8.63;;;6.50;;
18933;SDS011;9599;53.706;10.384;2023-01-28T07:55:38;10.00;;;6.30;;
18933;SDS011;9599;53.706;10.384;2023-01-28T07:58:07;8.83;;;6.23;;
18933;SDS011;9599;53.706;10.384;2023-01-28T08:00:37;10.13;;;6.63;;
18933;SDS011;9599;53.706;10.384;2023-01-28T08:03:06;11.03;;;7.27;;
18933;SDS011;9599;53.706;10.384;2023-01-28T08:05:39;10.03;;;7.63;;
18933;SDS011;9599;53.706;10.384;2023-01-28T08:08:10;13.37;;;7.87;;
18933;SDS011;9599;53.706;10.384;2023-01-28T08:10:40;11.37;;;8.30;;
18933;SDS011;9599;53.706;10.384;2023-01-28T08:13:09;10.83;;;8.07;;
18933;SDS011;9599;53.706;10.384;2023-01-28T08:15:38;13.33;;;8.27;;
18933;SDS011;9599;53.706;10.384;2023-01-28T08:18:07;12.83;;;9.13;;
18933;SDS011;9599;53.706;10.384;2023-01-28T08:20:38;14.27;;;8.53;;
18933;SDS011;9599;53.706;10.384;2023-01-28T08:23:10;13.27;;;8.37;;
18933;SDS011;9599;53.706;10.384;2023-01-28T08:25:41;16.00;;;8.80;;
18933;SDS011;9599;53.706;10.384;2023-01-28T08:28:09;16.53;;;10.60;;
18933;SDS011;9599;53.706;10.384;2023-01-28T08:30:38;25.70;;;14.00;;
18933;SDS011;9599;53.706;10.384;2023-01-28T08:33:06;26.07;;;14.63;;
18933;SDS011;9599;53.706;10.384;2023-01-28T08:35:36;21.27;;;12.47;;
18933;SDS011;9599;53.706;10.384;2023-01-28T08:38:05;25.67;;;14.23;;
18933;SDS011;9599;53.706;10.384;2023-01-28T08:40:33;25.20;;;15.43;;
18933;SDS011;9599;53.706;10.384;2023-01-28T08:43:03;22.17;;;14.90;;
18933;SDS011;9599;53.706;10.384;2023-01-28T08:45:31;20.33;;;12.60;;
18933;SDS011;9599;53.706;10.384;2023-01-28T08:48:00;17.33;;;11.30;;
18933;SDS011;9599;53.706;10.384;2023-01-28T08:50:29;17.97;;;11.50;;
18933;SDS011;9599;53.706;10.384;2023-01-28T08:52:59;17.07;;;11.40;;
18933;SDS011;9599;53.706;10.384;2023-01-28T08:55:29;16.73;;;11.10;;
18933;SDS011;9599;53.706;10.384;2023-01-28T08:57:57;16.00;;;10.27;;
18933;SDS011;9599;53.706;10.384;2023-01-28T09:00:29;16.87;;;10.60;;
18933;SDS011;9599;53.706;10.384;2023-01-28T09:02:58;15.70;;;10.10;;
18933;SDS011;9599;53.706;10.384;2023-01-28T09:05:26;15.93;;;10.30;;
18933;SDS011;9599;53.706;10.384;2023-01-28T09:07:55;14.83;;;10.17;;
18933;SDS011;9599;53.706;10.384;2023-01-28T09:10:23;18.20;;;10.60;;
18933;SDS011;9599;53.706;10.384;2023-01-28T09:12:50;18.67;;;10.70;;
18933;SDS011;9599;53.706;10.384;2023-01-28T09:15:18;16.63;;;10.20;;
18933;SDS011;9599;53.706;10.384;2023-01-28T09:17:48;19.77;;;11.17;;
18933;SDS011;9599;53.706;10.384;2023-01-28T09:20:17;18.27;;;10.93;;
18933;SDS011;9599;53.706;10.384;2023-01-28T09:22:45;17.50;;;10.73;;
18933;SDS011;9599;53.706;10.384;2023-01-28T09:25:14;19.20;;;10.97;;
18933;SDS011;9599;53.706;10.384;2023-01-28T09:27:43;24.13;;;13.50;;
18933;SDS011;9599;53.706;10.384;2023-01-28T09:30:11;18.83;;;11.30;;
18933;SDS011;9599;53.706;10.384;2023-01-28T09:32:40;15.77;;;11.03;;
18933;SDS011;9599;53.706;10.384;2023-01-28T09:35:11;23.37;;;13.67;;
18933;SDS011;9599;53.706;10.384;2023-01-28T09:37:40;22.73;;;13.77;;
18933;SDS011;9599;53.706;10.384;2023-01-28T09:40:09;16.83;;;11.13;;
18933;SDS011;9599;53.706;10.384;2023-01-28T09:42:46;19.60;;;12.83;;
18933;SDS011;9599;53.706;10.384;2023-01-28T09:45:27;18.17;;;12.03;;
18933;SDS011;9599;53.706;10.384;2023-01-28T09:48:02;16.47;;;11.37;;
18933;SDS011;9599;53.706;10.384;2023-01-28T09:50:35;17.30;;;10.57;;
18933;SDS011;9599;53.706;10.384;2023-01-28T09:53:06;14.57;;;10.30;;
18933;SDS011;9599;53.706;10.384;2023-01-28T09:55:40;18.00;;;11.13;;
18933;SDS011;9599;53.706;10.384;2023-01-28T09:58:12;16.47;;;11.20;;
18933;SDS011;9599;53.706;10.384;2023-01-28T10:00:45;18.30;;;11.60;;
18933;SDS011;9599;53.706;10.384;2023-01-28T10:06:21;14.70;;;9.90;;
18933;SDS011;9599;53.706;10.384;2023-01-28T10:08:59;16.90;;;10.40;;
18933;SDS011;9599;53.706;10.384;2023-01-28T10:11:40;15.45;;;11.27;;
18933;SDS011;9599;53.706;10.384;2023-01-28T10:14:19;14.80;;;9.67;;
18933;SDS011;9599;53.706;10.384;2023-01-28T10:16:56;13.33;;;9.60;;
18933;SDS011;9599;53.706;10.384;2023-01-28T10:19:34;12.57;;;8.80;;
18933;SDS011;9599;53.706;10.384;2023-01-28T10:22:08;12.90;;;9.27;;
18933;SDS011;9599;53.706;10.384;2023-01-28T10:24:44;14.23;;;9.27;;
18933;SDS011;9599;53.706;10.384;2023-01-28T10:27:15;13.50;;;9.40;;
18933;SDS011;9599;53.706;10.384;2023-01-28T10:29:45;13.67;;;9.73;;
18933;SDS011;9599;53.706;10.384;2023-01-28T10:32:16;13.77;;;9.37;;
18933;SDS011;9599;53.706;10.384;2023-01-28T10:34:49;12.13;;;8.93;;
18933;SDS011;9599;53.706;10.384;2023-01-28T10:37:20;10.57;;;8.23;;
18933;SDS011;9599;53.706;10.384;2023-01-28T10:39:48;11.23;;;8.70;;
18933;SDS011;9599;53.706;10.384;2023-01-28T10:42:19;12.40;;;8.60;;
18933;SDS011;9599;53.706;10.384;2023-01-28T10:44:54;13.67;;;8.20;;
18933;SDS011;9599;53.706;10.384;2023-01-28T10:47:28;11.27;;;8.10;;
18933;SDS011;9599;53.706;10.384;2023-01-28T10:49:59;11.47;;;7.83;;
18933;SDS011;9599;53.706;10.384;2023-01-28T10:52:30;11.00;;;7.53;;
18933;SDS011;9599;53.706;10.384;2023-01-28T10:54:58;10.40;;;8.30;;
18933;SDS011;9599;53.706;10.384;2023-01-28T10:57:27;11.17;;;8.30;;
18933;SDS011;9599;53.706;10.384;2023-01-28T10:59:55;10.80;;;8.90;;
18933;SDS011;9599;53.706;10.384;2023-01-28T11:02:28;12.07;;;9.57;;
18933;SDS011;9599;53.706;10.384;2023-01-28T11:05:02;11.60;;;7.70;;
18933;SDS011;9599;53.706;10.384;2023-01-28T11:07:33;11.47;;;8.70;;
18933;SDS011;9599;53.706;10.384;2023-01-28T11:10:01;13.63;;;8.80;;
18933;SDS011;9599;53.706;10.384;2023-01-28T11:12:30;11.80;;;8.93;;
18933;SDS011;9599;53.706;10.384;2023-01-28T11:15:01;11.30;;;8.70;;
18933;SDS011;9599;53.706;10.384;2023-01-28T11:17:30;11.53;;;8.90;;
18933;SDS011;9599;53.706;10.384;2023-01-28T11:20:08;12.57;;;9.33;;
18933;SDS011;9599;53.706;10.384;2023-01-28T11:22:41;11.93;;;8.77;;
18933;SDS011;9599;53.706;10.384;2023-01-28T11:25:14;12.13;;;9.53;;
18933;SDS011;9599;53.706;10.384;2023-01-28T11:27:45;12.90;;;8.80;;
18933;SDS011;9599;53.706;10.384;2023-01-28T11:30:18;13.83;;;9.40;;
18933;SDS011;9599;53.706;10.384;2023-01-28T11:32:55;13.73;;;9.47;;
18933;SDS011;9599;53.706;10.384;2023-01-28T11:35:26;13.43;;;10.60;;
18933;SDS011;9599;53.706;10.384;2023-01-28T11:37:59;15.43;;;10.63;;
18933;SDS011;9599;53.706;10.384;2023-01-28T11:40:27;15.00;;;10.53;;
18933;SDS011;9599;53.706;10.384;2023-01-28T11:42:55;13.80;;;11.03;;
18933;SDS011;9599;53.706;10.384;2023-01-28T11:45:27;16.93;;;11.13;;
18933;SDS011;9599;53.706;10.384;2023-01-28T11:48:09;16.10;;;11.47;;
18933;SDS011;9599;53.706;10.384;2023-01-28T11:50:49;14.50;;;9.30;;
18933;SDS011;9599;53.706;10.384;2023-01-28T11:59:33;16.97;;;10.73;;
18933;SDS011;9599;53.706;10.384;2023-01-28T12:02:24;16.90;;;11.80;;
18933;SDS011;9599;53.706;10.384;2023-01-28T12:05:10;15.47;;;10.57;;
18933;SDS011;9599;53.706;10.384;2023-01-28T12:07:49;13.40;;;10.50;;
18933;SDS011;9599;53.706;10.384;2023-01-28T12:10:28;13.43;;;10.40;;
18933;SDS011;9599;53.706;10.384;2023-01-28T12:13:12;13.53;;;10.27;;
18933;SDS011;9599;53.706;10.384;2023-01-28T12:16:00;15.77;;;11.53;;
18933;SDS011;9599;53.706;10.384;2023-01-28T12:18:43;17.50;;;14.00;;
18933;SDS011;9599;53.706;10.384;2023-01-28T12:21:36;14.47;;;11.00;;
18933;SDS011;9599;53.706;10.384;2023-01-28T12:24:19;13.03;;;9.90;;
18933;SDS011;9599;53.706;10.384;2023-01-28T12:26:57;12.77;;;10.00;;
18933;SDS011;9599;53.706;10.384;2023-01-28T12:29:37;13.17;;;9.93;;
18933;SDS011;9599;53.706;10.384;2023-01-28T12:32:16;15.00;;;10.43;;
18933;SDS011;9599;53.706;10.384;2023-01-28T12:35:07;13.13;;;9.70;;
18933;SDS011;9599;53.706;10.384;2023-01-28T12:38:03;12.10;;;9.20;;
18933;SDS011;9599;53.706;10.384;2023-01-28T12:46:22;12.20;;;8.97;;
18933;SDS011;9599;53.706;10.384;2023-01-28T12:48:57;11.93;;;8.77;;
18933;SDS011;9599;53.706;10.384;2023-01-28T12:51:31;13.00;;;8.80;;
18933;SDS011;9599;53.706;10.384;2023-01-28T12:54:10;12.40;;;8.70;;
18933;SDS011;9599;53.706;10.384;2023-01-28T12:56:43;11.57;;;8.93;;
18933;SDS011;9599;53.706;10.384;2023-01-28T12:59:17;17.50;;;13.47;;
18933;SDS011;9599;53.706;10.384;2023-01-28T13:01:50;27.83;;;18.93;;
18933;SDS011;9599;53.706;10.384;2023-01-28T13:04:28;11.70;;;8.60;;
18933;SDS011;9599;53.706;10.384;2023-01-28T13:07:01;14.27;;;8.90;;
18933;SDS011;9599;53.706;10.384;2023-01-28T13:09:33;13.47;;;8.07;;
18933;SDS011;9599;53.706;10.384;2023-01-28T13:12:03;17.83;;;12.47;;
18933;SDS011;9599;53.706;10.384;2023-01-28T13:14:35;12.57;;;8.77;;
18933;SDS011;9599;53.706;10.384;2023-01-28T13:17:10;19.87;;;13.67;;
18933;SDS011;9599;53.706;10.384;2023-01-28T13:19:39;18.10;;;12.30;;
18933;SDS011;9599;53.706;10.384;2023-01-28T13:22:09;14.97;;;10.47;;
18933;SDS011;9599;53.706;10.384;2023-01-28T13:24:51;13.47;;;9.33;;
18933;SDS011;9599;53.706;10.384;2023-01-28T13:27:21;15.17;;;9.10;;
18933;SDS011;9599;53.706;10.384;2023-01-28T13:30:00;13.37;;;8.73;;
18933;SDS011;9599;53.706;10.384;2023-01-28T13:32:32;11.03;;;8.43;;
18933;SDS011;9599;53.706;10.384;2023-01-28T13:35:04;12.90;;;9.53;;
18933;SDS011;9599;53.706;10.384;2023-01-28T13:37:35;14.10;;;9.23;;
18933;SDS011;9599;53.706;10.384;2023-01-28T13:40:07;12.63;;;9.40;;
18933;SDS011;9599;53.706;10.384;2023-01-28T13:42:56;13.33;;;9.20;;
18933;SDS011;9599;53.706;10.384;2023-01-28T13:45:30;14.10;;;9.67;;
18933;SDS011;9599;53.706;10.384;2023-01-28T13:48:03;13.23;;;9.50;;
18933;SDS011;9599;53.706;10.384;2023-01-28T13:50:42;15.33;;;10.20;;
18933;SDS011;9599;53.706;10.384;2023-01-28T13:53:18;14.13;;;9.73;;
18933;SDS011;9599;53.706;10.384;2023-01-28T13:55:54;14.43;;;10.13;;
18933;SDS011;9599;53.706;10.384;2023-01-28T13:58:32;15.77;;;9.70;;
18933;SDS011;9599;53.706;10.384;2023-01-28T14:01:30;16.43;;;10.60;;
18933;SDS011;9599;53.706;10.384;2023-01-28T14:07:40;17.30;;;10.57;;
18933;SDS011;9599;53.706;10.384;2023-01-28T14:10:46;17.90;;;10.97;;
18933;SDS011;9599;53.706;10.384;2023-01-28T14:13:32;18.17;;;10.90;;
18933;SDS011;9599;53.706;10.384;2023-01-28T14:16:21;20.13;;;11.97;;
18933;SDS011;9599;53.706;10.384;2023-01-28T14:18:59;16.83;;;10.47;;
18933;SDS011;9599;53.706;10.384;2023-01-28T14:21:30;17.40;;;11.40;;
18933;SDS011;9599;53.706;10.384;2023-01-28T14:24:00;14.30;;;9.50;;
18933;SDS011;9599;53.706;10.384;2023-01-28T14:26:32;16.07;;;10.90;;
18933;SDS011;9599;53.706;10.384;2023-01-28T14:29:13;18.60;;;11.93;;
18933;SDS011;9599;53.706;10.384;2023-01-28T14:31:48;16.93;;;11.57;;
18933;SDS011;9599;53.706;10.384;2023-01-28T14:34:21;16.60;;;11.20;;
18933;SDS011;9599;53.706;10.384;2023-01-28T14:36:52;21.63;;;11.77;;
18933;SDS011;9599;53.706;10.384;2023-01-28T14:39:23;17.87;;;12.13;;
18933;SDS011;9599;53.706;10.384;2023-01-28T14:41:54;24.07;;;14.93;;
18933;SDS011;9599;53.706;10.384;2023-01-28T14:44:27;21.50;;;14.67;;
18933;SDS011;9599;53.706;10.384;2023-01-28T14:47:02;20.47;;;12.00;;
18933;SDS011;9599;53.706;10.384;2023-01-28T14:49:44;19.73;;;12.33;;
18933;SDS011;9599;53.706;10.384;2023-01-28T14:52:32;16.80;;;10.87;;
18933;SDS011;9599;53.706;10.384;2023-01-28T14:55:13;19.37;;;11.73;;
18933;SDS011;9599;53.706;10.384;2023-01-28T14:57:52;20.90;;;12.73;;
18933;SDS011;9599;53.706;10.384;2023-01-28T15:00:26;19.10;;;12.60;;
18933;SDS011;9599;53.706;10.384;2023-01-28T15:02:55;20.60;;;12.27;;
18933;SDS011;9599;53.706;10.384;2023-01-28T15:05:25;25.30;;;15.73;;
18933;SDS011;9599;53.706;10.384;2023-01-28T15:07:55;25.33;;;15.30;;
18933;SDS011;9599;53.706;10.384;2023-01-28T15:10:23;24.43;;;16.63;;
18933;SDS011;9599;53.706;10.384;2023-01-28T15:12:55;20.07;;;13.40;;
18933;SDS011;9599;53.706;10.384;2023-01-28T15:15:28;20.87;;;12.20;;
18933;SDS011;9599;53.706;10.384;2023-01-28T15:18:00;39.90;;;24.43;;
18933;SDS011;9599;53.706;10.384;2023-01-28T15:20:31;32.30;;;21.73;;
18933;SDS011;9599;53.706;10.384;2023-01-28T15:23:00;26.63;;;16.70;;
18933;SDS011;9599;53.706;10.384;2023-01-28T15:25:32;23.83;;;15.40;;
18933;SDS011;9599;53.706;10.384;2023-01-28T15:28:00;20.27;;;12.50;;
18933;SDS011;9599;53.706;10.384;2023-01-28T15:30:31;19.67;;;12.40;;